Warkworth, United Kingdom
Current Conditions -  °F | °C
As of 12:50 PM on Friday 28 Nov 2014 (Local Time) from EGQM Reporting Station
Overcast Overcast  
Wind Chill: 50°   Ceiling: 700
Heat Index: 50°   Visibility: 6mi
Dew Point: 50°   Wind: 13mph
Humidity: 100%   Direction: 110°ESE
Pressure: 29.77"   Gusts: NA
Location:  55.35°N, 1.6°W
Report Text: EGQM 281250Z AUTO 11011KT 9999 OVC007/// 10/10 Q1008
Loading
Personal Weather Stations






























Interactive Weather Map New forecast layout! Learn more

10-Day Weather Forecast

Advertisements
Track Severe Weather on mobile